Time;durP1;ratioP1;P1;durP2;ratioP2;P2;SDS_P1;SDS_P2;PMS_P1;PMS_P2;Temp;Humidity;BMP_temperature;BMP_pressure;BME280_temperature;BME280_humidity;BME280_pressure;Samples;Min_cycle;Max_cycle;Signal;HPM_P1;HPM_P2
2021/06/11 00:00:32;;;;;;;2.67;2.47;;;;;;;20.34;93.27;97715.38;5079530;28;20286;-69
2021/06/11 00:02:59;;;;;;;2.83;2.63;;;;;;;20.69;93.42;97783.06;5065545;28;20196;-67
2021/06/11 00:05:26;;;;;;;2.77;2.57;;;;;;;19.14;92.89;97507.59;5078673;28;20377;-67
2021/06/11 00:07:52;;;;;;;2.67;2.47;;;;;;;20.68;93.46;97768.53;5070528;28;20200;-69
2021/06/11 00:10:19;;;;;;;2.57;2.37;;;;;;;20.69;93.18;97771.16;5074015;28;20214;-69
2021/06/11 00:12:46;;;;;;;2.80;2.60;;;;;;;20.69;93.18;97768.59;5077831;28;20310;-66
2021/06/11 00:15:12;;;;;;;2.70;2.50;;;;;;;19.98;93.16;97656.16;5079781;28;20255;-72
2021/06/11 00:17:39;;;;;;;2.53;2.33;;;;;;;20.69;93.18;97762.63;5077630;28;20242;-68
2021/06/11 00:20:06;;;;;;;2.70;2.50;;;;;;;20.69;93.31;97763.47;5070360;28;20266;-65
2021/06/11 00:22:33;;;;;;;2.80;2.60;;;;;;;19.55;93.02;97562.69;5071484;28;20741;-71
2021/06/11 00:25:00;;;;;;;4.50;2.60;;;;;;;19.19;92.92;97500.97;5049778;28;20322;-68
2021/06/11 00:27:26;;;;;;;2.60;2.40;;;;;;;20.69;93.57;97753.28;5075027;28;20318;-68
2021/06/11 00:29:53;;;;;;;2.70;2.50;;;;;;;20.69;93.34;97758.38;5079490;28;20260;-68
2021/06/11 00:32:19;;;;;;;2.70;2.50;;;;;;;20.69;93.34;97754.97;5074790;28;20724;-68
2021/06/11 00:34:46;;;;;;;2.53;2.33;;;;;;;18.13;93.02;97320.34;5077325;28;20223;-66
2021/06/11 00:37:13;;;;;;;2.50;2.30;;;;;;;20.69;93.16;97754.97;5077428;28;20200;-67
2021/06/11 00:39:39;;;;;;;2.77;2.57;;;;;;;20.69;93.66;97754.97;5075163;28;20291;-69
2021/06/11 00:42:06;;;;;;;2.70;2.50;;;;;;;20.69;93.61;97757.53;5075563;28;20292;-71
2021/06/11 00:44:33;;;;;;;2.50;2.30;;;;;;;20.69;93.60;97757.53;5074726;28;20254;-67
2021/06/11 00:47:00;;;;;;;3.10;2.80;;;;;;;20.68;93.49;97754.09;5073569;28;20212;-66
2021/06/11 00:49:26;;;;;;;2.60;2.40;;;;;;;20.68;93.45;97764.31;5078820;28;20673;-70
2021/06/11 00:51:53;;;;;;;2.50;2.30;;;;;;;17.73;93.07;97245.84;5055620;28;20249;-67
2021/06/11 00:54:20;;;;;;;3.70;2.57;;;;;;;20.68;93.27;97754.09;5039957;28;20210;-67
2021/06/11 00:56:47;;;;;;;2.47;2.27;;;;;;;20.70;93.45;97754.16;5039196;28;20276;-69
2021/06/11 00:59:13;;;;;;;2.40;2.30;;;;;;;20.68;93.71;97749.00;5073820;28;20220;-69
2021/06/11 01:01:42;;;;;;;2.40;2.20;;;;;;;18.78;93.43;97424.69;5073135;28;20234;-63
2021/06/11 01:04:09;;;;;;;2.60;2.40;;;;;;;17.41;93.07;97182.66;5073451;28;20196;-67
2021/06/11 01:06:36;;;;;;;3.10;2.80;;;;;;;20.69;93.56;97762.63;5073636;28;20263;-70
2021/06/11 01:09:03;;;;;;;2.50;2.30;;;;;;;20.68;93.59;97755.78;5058970;28;20287;-68
2021/06/11 01:11:30;;;;;;;2.30;2.10;;;;;;;20.50;93.49;97720.25;5071874;28;20231;-72
2021/06/11 01:13:56;;;;;;;2.63;2.43;;;;;;;19.74;93.70;97595.72;5058877;28;20257;-69
2021/06/11 01:16:23;;;;;;;2.53;2.33;;;;;;;17.57;93.08;97242.63;5055218;28;20252;-68
2021/06/11 01:18:50;;;;;;;2.93;2.73;;;;;;;20.69;93.65;97755.81;5075432;28;20576;-67
2021/06/11 01:21:18;;;;;;;2.80;2.50;;;;;;;20.17;93.43;97665.41;5057051;28;20363;-72
2021/06/11 01:24:13;;;;;;;2.63;2.43;;;;;;;20.68;93.56;97755.78;5056262;28;20609;-71
2021/06/11 01:26:42;;;;;;;2.57;2.37;;;;;;;20.68;93.58;97756.66;5070121;28;20227;-70
2021/06/11 01:29:11;;;;;;;2.50;2.30;;;;;;;20.67;93.56;97752.38;5052375;28;20205;-70
2021/06/11 01:31:44;;;;;;;2.53;2.33;;;;;;;20.36;93.53;97700.97;5070320;28;20236;-67
2021/06/11 01:34:17;;;;;;;2.80;2.57;;;;;;;20.67;93.75;97752.38;5068697;28;20219;-68
2021/06/11 01:36:46;;;;;;;2.90;2.57;;;;;;;19.78;93.56;97602.69;5049759;28;20223;-68
2021/06/11 01:39:15;;;;;;;2.50;2.30;;;;;;;20.52;93.50;97726.25;5052405;28;20287;-68
2021/06/11 01:41:42;;;;;;;2.70;2.50;;;;;;;20.68;93.59;97753.22;5050658;28;20253;-66
2021/06/11 01:44:09;;;;;;;2.50;2.30;;;;;;;20.50;93.49;97727.91;5076562;28;20231;-68
2021/06/11 01:46:36;;;;;;;2.23;2.03;;;;;;;20.68;93.34;97756.66;5064326;28;20748;-69
2021/06/11 01:49:03;;;;;;;2.63;2.43;;;;;;;20.68;93.56;97758.31;5072502;28;20227;-67
2021/06/11 01:51:30;;;;;;;2.63;2.43;;;;;;;20.68;94.43;97746.44;5075398;28;20290;-68
2021/06/11 01:53:59;;;;;;;2.70;2.50;;;;;;;20.68;93.54;97758.31;5073757;28;20655;-70
2021/06/11 01:56:25;;;;;;;2.47;2.27;;;;;;;20.68;93.59;97753.22;5057320;28;20316;-66
2021/06/11 01:58:52;;;;;;;2.70;2.37;;;;;;;16.75;93.14;97086.03;5057015;28;20286;-67
2021/06/11 02:01:19;;;;;;;2.50;2.30;;;;;;;20.68;93.50;97748.09;5038081;28;20688;-68
2021/06/11 02:03:46;;;;;;;2.20;2.00;;;;;;;20.69;93.64;97752.41;5041717;28;20202;-66
2021/06/11 02:06:15;;;;;;;2.67;2.47;;;;;;;20.68;93.58;97745.56;5076110;28;20634;-70
2021/06/11 02:08:43;;;;;;;2.33;2.23;;;;;;;20.14;93.64;97659.31;5059327;28;20628;-67
2021/06/11 02:11:10;;;;;;;2.67;2.47;;;;;;;19.25;92.93;97508.00;5055635;28;20288;-68
2021/06/11 02:13:39;;;;;;;2.50;2.30;;;;;;;20.50;93.54;97717.69;5052367;28;20216;-67
2021/06/11 02:16:06;;;;;;;2.40;2.20;;;;;;;19.42;93.46;97530.78;5051080;28;20243;-68
2021/06/11 02:18:34;;;;;;;2.40;2.20;;;;;;;20.68;93.66;97751.53;5074433;28;20202;-67
2021/06/11 02:21:03;;;;;;;2.40;2.20;;;;;;;20.68;93.63;97743.88;5062181;28;20304;-69
2021/06/11 02:23:30;;;;;;;2.50;2.30;;;;;;;20.67;93.50;97739.59;5063224;28;20946;-69
2021/06/11 02:25:56;;;;;;;2.77;2.57;;;;;;;20.69;93.57;97739.66;5077383;28;20787;-65
2021/06/11 02:28:23;;;;;;;2.57;2.37;;;;;;;17.43;93.24;97181.09;5058723;28;20350;-68
2021/06/11 02:30:50;;;;;;;2.57;2.37;;;;;;;19.45;93.48;97524.94;5075246;28;20200;-67
2021/06/11 02:33:17;;;;;;;2.90;2.70;;;;;;;20.67;93.31;97739.59;5076627;28;20228;-69
2021/06/11 02:35:44;;;;;;;2.40;2.23;;;;;;;16.69;93.11;97047.72;5061502;28;20667;-63
2021/06/11 02:38:10;;;;;;;2.17;2.07;;;;;;;19.07;93.48;97462.28;5055720;28;20287;-70
2021/06/11 02:40:37;;;;;;;2.60;2.40;;;;;;;20.69;93.77;97742.22;5070964;28;20199;-71
2021/06/11 02:43:07;;;;;;;2.90;2.30;;;;;;;20.68;93.45;97736.22;5071969;28;20235;-66
2021/06/11 02:45:40;;;;;;;2.50;2.30;;;;;;;20.68;93.73;97733.66;5095137;28;20253;-63
2021/06/11 02:48:06;;;;;;;2.60;2.27;;;;;;;20.67;93.65;97731.94;5053784;28;20227;-68
2021/06/11 02:50:36;;;;;;;2.20;2.10;;;;;;;19.93;93.88;97616.84;5079417;28;20231;-69
2021/06/11 02:53:03;;;;;;;2.17;2.07;;;;;;;20.68;93.65;97732.78;5073257;28;20769;-63
2021/06/11 02:55:30;;;;;;;2.70;2.50;;;;;;;20.68;94.21;97737.91;5072029;28;20323;-69
2021/06/11 02:58:09;;;;;;;2.43;2.27;;;;;;;20.68;93.51;97743.00;5057976;28;20196;-70
2021/06/11 03:00:36;;;;;;;2.23;2.13;;;;;;;20.31;93.71;97668.47;5068416;28;20843;-68
2021/06/11 03:03:08;;;;;;;2.53;2.33;;;;;;;20.35;93.64;97676.28;5061783;28;20632;-68
2021/06/11 03:05:34;;;;;;;2.80;2.40;;;;;;;20.70;93.52;97741.38;5061048;28;20422;-69
2021/06/11 03:08:02;;;;;;;2.60;2.40;;;;;;;20.71;93.51;97732.91;5074134;28;20654;-70
2021/06/11 03:10:33;;;;;;;2.53;2.33;;;;;;;17.45;93.27;97235.38;5054203;28;20214;-71
2021/06/11 03:13:00;;;;;;;2.50;2.30;;;;;;;20.73;93.54;97741.50;5073534;28;20223;-67
2021/06/11 03:15:29;;;;;;;2.33;2.20;;;;;;;20.39;93.62;97680.69;5058469;28;20312;-69
2021/06/11 03:17:58;;;;;;;2.90;2.00;;;;;;;20.71;93.41;97736.31;5055825;28;20661;-68
2021/06/11 03:20:26;;;;;;;2.40;2.20;;;;;;;20.55;93.51;97716.19;5078228;28;20247;-68
2021/06/11 03:22:53;;;;;;;2.47;2.27;;;;;;;20.70;93.38;97729.50;5061089;28;20228;-69
2021/06/11 03:25:22;;;;;;;2.20;2.10;;;;;;;20.70;93.36;97736.28;5073778;28;20311;-67
2021/06/11 03:27:52;;;;;;;2.10;2.00;;;;;;;20.31;93.38;97682.06;5067267;28;20204;-70
2021/06/11 03:30:19;;;;;;;2.20;2.10;;;;;;;20.70;93.27;97749.03;5055748;28;20251;-68
2021/06/11 03:32:48;;;;;;;2.30;2.20;;;;;;;20.19;93.03;97661.22;5057099;28;20290;-71
2021/06/11 03:35:18;;;;;;;3.00;2.17;;;;;;;17.62;93.17;97280.09;5052538;28;20620;-69
2021/06/11 03:37:46;;;;;;;2.30;2.13;;;;;;;20.69;93.11;97743.06;5048858;28;20284;-71
2021/06/11 03:40:14;;;;;;;2.17;2.07;;;;;;;20.70;93.61;97746.50;5071993;28;20227;-70
2021/06/11 03:42:41;;;;;;;2.57;2.37;;;;;;;20.69;94.11;97750.72;5058035;28;20287;-70
2021/06/11 03:45:08;;;;;;;2.53;2.33;;;;;;;20.46;93.55;97709.84;5070631;28;20247;-67
2021/06/11 03:47:37;;;;;;;2.60;2.40;;;;;;;20.70;93.77;97756.72;5074320;28;20295;-71
2021/06/11 03:50:04;;;;;;;2.43;2.30;;;;;;;20.69;93.51;97753.28;5058365;28;20676;-70
2021/06/11 03:52:31;;;;;;;2.60;2.40;;;;;;;20.15;93.12;97677.22;5077877;28;20206;-68
2021/06/11 03:55:07;;;;;;;2.53;2.33;;;;;;;18.31;93.18;97339.63;5070582;28;20319;-68
2021/06/11 03:57:33;;;;;;;2.37;2.13;;;;;;;20.70;93.71;97761.81;5060236;28;20222;-69
2021/06/11 04:00:00;;;;;;;2.37;2.17;;;;;;;20.69;93.38;97754.97;5062318;28;20801;-70
2021/06/11 04:02:26;;;;;;;5.33;2.07;;;;;;;20.69;94.03;97753.28;5050065;28;20196;-69
2021/06/11 04:04:53;;;;;;;2.23;2.10;;;;;;;20.69;93.14;97755.81;5076798;28;20238;-68
2021/06/11 04:08:01;;;;;;;2.40;2.20;;;;;;;20.69;93.20;97758.38;5078931;28;20334;-70
2021/06/11 04:10:33;;;;;;;2.10;2.00;;;;;;;20.04;93.04;97639.34;5077401;28;20349;-68
2021/06/11 04:13:14;;;;;;;1.90;1.80;;;;;;;20.70;93.16;97759.25;5053016;28;20658;-68
2021/06/11 04:15:41;;;;;;;2.17;2.03;;;;;;;20.70;93.12;97761.81;5073077;28;20219;-70
2021/06/11 04:18:12;;;;;;;2.20;1.97;;;;;;;16.85;92.60;97138.03;5071511;28;20636;-68
2021/06/11 04:20:38;;;;;;;2.33;2.13;;;;;;;20.48;92.87;97720.97;5038067;28;20544;-68
2021/06/11 04:23:08;;;;;;;2.53;1.93;;;;;;;20.20;92.49;97673.19;5056763;28;20653;-67
2021/06/11 04:25:35;;;;;;;2.50;2.30;;;;;;;20.69;92.92;97752.41;5076918;28;20266;-68
2021/06/11 04:28:03;;;;;;;2.20;2.00;;;;;;;20.28;92.76;97687.06;5076254;28;20298;-68
2021/06/11 04:30:30;;;;;;;2.23;2.00;;;;;;;20.69;92.99;97763.47;5068754;28;20240;-67
2021/06/11 04:32:57;;;;;;;2.30;2.07;;;;;;;20.34;92.95;97707.72;5057352;28;20253;-67
2021/06/11 04:35:24;;;;;;;2.00;1.90;;;;;;;20.68;92.98;97766.88;5075199;28;20306;-67
2021/06/11 04:37:51;;;;;;;2.50;2.30;;;;;;;20.68;93.23;97769.41;5056738;28;20628;-68
2021/06/11 04:40:18;;;;;;;2.40;2.20;;;;;;;17.27;92.71;97176.19;5070076;28;20648;-67
2021/06/11 04:42:45;;;;;;;2.20;2.00;;;;;;;20.16;93.19;97675.56;5078104;28;20295;-67
2021/06/11 04:45:12;;;;;;;2.37;2.17;;;;;;;20.54;93.12;97750.16;5069833;28;20256;-68
2021/06/11 04:47:39;;;;;;;5.40;2.30;;;;;;;20.69;93.25;97772.84;5060359;28;20516;-67
2021/06/11 04:50:06;;;;;;;2.50;2.30;;;;;;;20.68;93.18;97774.53;5070853;28;20712;-67
2021/06/11 04:52:32;;;;;;;2.27;2.07;;;;;;;20.69;93.29;97775.41;5071056;28;20228;-68
2021/06/11 04:54:59;;;;;;;2.30;2.10;;;;;;;20.68;93.28;97794.97;5076931;28;20324;-66
2021/06/11 04:57:26;;;;;;;2.60;2.40;;;;;;;20.68;93.28;97782.19;5072212;28;20300;-70
2021/06/11 04:59:52;;;;;;;2.97;2.27;;;;;;;20.68;93.13;97782.19;5074262;28;20251;-68
2021/06/11 05:02:19;;;;;;;2.63;2.43;;;;;;;20.68;93.28;97782.19;5073978;28;20291;-65
2021/06/11 05:04:45;;;;;;;2.27;2.07;;;;;;;20.68;93.19;97777.09;5075511;28;20259;-67
2021/06/11 05:07:12;;;;;;;2.10;2.00;;;;;;;20.68;93.45;97781.31;5076893;28;20721;-67
2021/06/11 05:09:38;;;;;;;2.17;2.03;;;;;;;20.68;93.24;97788.97;5078224;28;20213;-70
2021/06/11 05:12:06;;;;;;;2.00;1.90;;;;;;;20.67;93.52;97783.00;5076806;28;20238;-68
2021/06/11 05:14:32;;;;;;;2.30;2.10;;;;;;;20.68;93.21;97786.41;5075240;28;20216;-65
2021/06/11 05:16:59;;;;;;;2.03;1.93;;;;;;;20.51;93.29;97935.56;5074384;28;20223;-69
2021/06/11 05:19:26;;;;;;;2.47;2.27;;;;;;;20.68;93.67;97784.75;5075472;28;20208;-72
2021/06/11 05:21:54;;;;;;;2.17;2.00;;;;;;;20.67;93.28;97798.34;5076979;28;20201;-66
2021/06/11 05:24:20;;;;;;;2.37;2.17;;;;;;;20.68;93.25;97786.41;5075787;28;20251;-69
2021/06/11 05:26:47;;;;;;;2.03;1.93;;;;;;;20.67;93.07;97785.56;5081869;22;20282;-71
2021/06/11 05:29:13;;;;;;;2.47;2.30;;;;;;;20.59;92.70;97773.31;5052875;28;20462;-71
2021/06/11 05:31:40;;;;;;;2.17;1.97;;;;;;;20.58;93.55;97771.59;5040489;28;20279;-71
2021/06/11 05:34:07;;;;;;;2.43;2.23;;;;;;;20.67;92.94;97790.69;5058705;28;20224;-71
2021/06/11 05:36:33;;;;;;;2.20;2.10;;;;;;;20.65;93.25;97788.84;5062724;28;20226;-71
2021/06/11 05:39:00;;;;;;;2.33;2.13;;;;;;;20.67;93.55;97800.88;5061573;28;20794;-69
2021/06/11 05:41:26;;;;;;;2.60;2.40;;;;;;;20.54;93.30;97775.69;5060667;28;20625;-71
2021/06/11 05:43:53;;;;;;;2.20;2.00;;;;;;;20.19;93.18;97714.78;5061854;28;20287;-70
2021/06/11 05:46:20;;;;;;;1.90;1.80;;;;;;;20.38;93.44;97747.00;5027532;28;20652;-70
2021/06/11 05:48:50;;;;;;;1.93;1.83;;;;;;;20.56;92.83;97779.19;5047490;28;20200;-71
2021/06/11 05:51:16;;;;;;;2.13;2.03;;;;;;;20.67;92.94;97800.88;5064163;28;20228;-71
2021/06/11 05:53:43;;;;;;;2.30;2.10;;;;;;;20.56;93.29;97783.41;5064460;28;20221;-71
2021/06/11 05:56:10;;;;;;;2.10;2.00;;;;;;;20.66;92.91;97795.72;5062608;28;20333;-71
2021/06/11 05:58:36;;;;;;;2.10;1.90;;;;;;;20.61;93.14;97787.03;5063489;28;20215;-71
2021/06/11 06:01:05;;;;;;;2.00;1.90;;;;;;;20.50;92.83;97770.41;5067866;28;20728;-71
2021/06/11 06:03:31;;;;;;;2.27;2.07;;;;;;;20.66;92.81;97801.69;5031419;28;20700;-72
2021/06/11 06:05:58;;;;;;;2.23;2.03;;;;;;;19.96;92.65;97685.84;5041340;28;20259;-71
2021/06/11 06:08:24;;;;;;;2.00;1.90;;;;;;;20.61;92.92;97794.69;5050464;28;20335;-71
2021/06/11 06:10:51;;;;;;;2.40;2.20;;;;;;;20.48;92.74;97772.91;5062914;28;20244;-71
2021/06/11 06:13:18;;;;;;;2.10;2.00;;;;;;;20.54;92.83;97775.69;5062495;28;20291;-71
2021/06/11 06:15:44;;;;;;;2.10;2.00;;;;;;;20.40;92.35;97753.88;5045331;28;20251;-71
2021/06/11 06:18:12;;;;;;;2.17;2.07;;;;;;;20.68;92.69;97794.06;5049627;28;20192;-71
2021/06/11 06:20:40;;;;;;;1.90;1.80;;;;;;;20.53;92.60;97767.97;5060832;28;21608;-70
2021/06/11 06:23:06;;;;;;;2.10;2.00;;;;;;;20.57;92.76;97780.91;5058335;28;20283;-70
2021/06/11 06:25:33;;;;;;;3.23;1.93;;;;;;;20.68;92.77;97789.84;5059136;28;20227;-72
2021/06/11 06:28:00;;;;;;;1.97;1.87;;;;;;;20.49;92.40;97766.97;5062867;28;20639;-71
2021/06/11 06:30:26;;;;;;;2.60;2.40;;;;;;;20.62;92.93;97787.06;5045744;28;20697;-71
2021/06/11 06:32:53;;;;;;;2.17;2.07;;;;;;;20.54;92.49;97779.94;5059985;28;20205;-69
2021/06/11 06:35:20;;;;;;;2.37;2.17;;;;;;;20.56;92.47;97773.19;5041480;28;20287;-71
2021/06/11 06:37:46;;;;;;;1.90;1.80;;;;;;;20.56;92.74;97780.84;5062816;28;20722;-70
2021/06/11 06:40:13;;;;;;;2.23;2.07;;;;;;;20.61;92.81;97787.91;5034256;28;20196;-70
2021/06/11 06:42:41;;;;;;;2.10;2.00;;;;;;;20.55;92.89;97776.56;5024789;28;20297;-70
2021/06/11 06:45:13;;;;;;;2.40;2.30;;;;;;;20.56;92.53;97775.75;5052764;28;20288;-70
2021/06/11 06:47:46;;;;;;;2.20;2.00;;;;;;;20.68;92.58;97800.06;5031509;28;20242;-70
2021/06/11 06:50:17;;;;;;;2.10;2.00;;;;;;;20.68;92.96;97800.06;5059022;28;20315;-71
2021/06/11 06:52:43;;;;;;;2.37;2.07;;;;;;;20.27;92.51;97738.94;5043716;28;20285;-71
2021/06/11 06:55:10;;;;;;;2.07;1.90;;;;;;;20.16;92.78;97711.28;5034811;28;20221;-70
2021/06/11 06:57:37;;;;;;;2.20;2.10;;;;;;;20.54;92.48;97778.25;5031715;28;20236;-71
2021/06/11 07:00:05;;;;;;;2.03;1.93;;;;;;;20.56;93.09;97776.63;5050040;28;20223;-71
2021/06/11 07:02:32;;;;;;;2.30;2.10;;;;;;;20.67;93.03;97803.44;5038458;28;20250;-70
2021/06/11 07:04:58;;;;;;;2.17;2.07;;;;;;;20.67;92.53;97808.56;5056417;28;20681;-71
2021/06/11 07:07:25;;;;;;;2.53;2.33;;;;;;;20.56;93.11;97783.41;5052915;28;20296;-71
2021/06/11 07:09:52;;;;;;;2.57;2.20;;;;;;;20.67;92.79;97803.44;5064255;28;20263;-69
2021/06/11 07:12:18;;;;;;;2.87;2.27;;;;;;;20.54;92.96;97780.81;5059373;28;20315;-71
2021/06/11 07:14:45;;;;;;;3.33;2.20;;;;;;;20.56;92.78;97791.94;5057812;28;20771;-71
2021/06/11 07:17:11;;;;;;;2.10;2.00;;;;;;;20.56;92.80;97788.53;5047076;28;20689;-71
2021/06/11 07:19:38;;;;;;;2.30;2.10;;;;;;;20.67;92.89;97807.66;5032384;28;20673;-71
2021/06/11 07:22:07;;;;;;;1.90;1.80;;;;;;;20.06;92.93;97704.91;5067721;28;20291;-71
2021/06/11 07:24:35;;;;;;;2.27;2.10;;;;;;;20.66;92.74;97813.59;5049470;28;20247;-71
2021/06/11 07:27:02;;;;;;;1.87;1.77;;;;;;;20.66;92.93;97805.94;5064905;28;20270;-70
2021/06/11 07:29:29;;;;;;;2.23;2.03;;;;;;;20.67;92.77;97816.22;5048472;28;20845;-71
2021/06/11 07:31:56;;;;;;;2.00;1.90;;;;;;;20.50;92.96;97784.06;5065300;28;20227;-71
2021/06/11 07:34:22;;;;;;;2.10;2.00;;;;;;;20.25;92.68;97740.53;5043113;28;20220;-69
2021/06/11 07:36:49;;;;;;;2.40;2.27;;;;;;;20.66;92.36;97806.78;5027615;28;20595;-71
2021/06/11 07:39:17;;;;;;;2.00;1.90;;;;;;;20.68;92.95;97806.84;5058968;28;20288;-70
2021/06/11 07:41:44;;;;;;;2.10;2.00;;;;;;;20.66;92.55;97801.69;5045038;28;20307;-71
2021/06/11 07:44:11;;;;;;;2.30;2.10;;;;;;;20.67;92.54;97808.56;5037590;28;20228;-71
2021/06/11 07:46:38;;;;;;;2.10;2.00;;;;;;;20.67;92.90;97807.66;5047631;28;20708;-71
2021/06/11 07:49:04;;;;;;;2.07;1.90;;;;;;;20.48;92.79;97774.59;5066433;28;20958;-71
2021/06/11 07:51:31;;;;;;;2.00;1.90;;;;;;;20.18;92.81;97704.53;5058471;28;20264;-71
2021/06/11 07:53:57;;;;;;;2.33;2.10;;;;;;;20.66;92.66;97804.25;5028942;28;20204;-71
2021/06/11 07:56:24;;;;;;;3.10;2.20;;;;;;;20.32;92.92;97731.44;5052900;28;20313;-71
2021/06/11 07:58:50;;;;;;;2.30;2.10;;;;;;;20.67;92.83;97795.78;5057157;28;20570;-71
2021/06/11 08:01:17;;;;;;;2.87;2.27;;;;;;;20.61;92.84;97785.34;5053663;28;20232;-72
2021/06/11 08:03:44;;;;;;;2.13;2.03;;;;;;;20.54;92.97;97777.41;5065137;28;20208;-71
2021/06/11 08:06:10;;;;;;;2.10;2.00;;;;;;;20.48;92.82;97767.81;5061371;28;20226;-71
2021/06/11 08:08:40;;;;;;;2.20;2.10;;;;;;;20.67;92.97;97797.47;5057523;28;20196;-71
2021/06/11 08:11:07;;;;;;;2.17;2.07;;;;;;;20.60;93.01;97780.19;5056902;28;20286;-71
2021/06/11 08:13:33;;;;;;;4.57;2.20;;;;;;;20.67;92.86;97800.88;5058931;28;20302;-71
2021/06/11 08:16:00;;;;;;;2.10;2.00;;;;;;;20.67;92.95;97803.44;5056474;28;20250;-72
2021/06/11 08:18:27;;;;;;;2.53;2.20;;;;;;;20.67;93.20;97800.88;5054297;28;20193;-71
2021/06/11 08:20:53;;;;;;;3.00;2.07;;;;;;;20.54;92.64;97775.69;5058340;28;20287;-70
2021/06/11 08:23:20;;;;;;;2.00;1.90;;;;;;;20.18;92.58;97718.16;5037281;28;20207;-71
2021/06/11 08:25:46;;;;;;;2.40;2.20;;;;;;;20.54;92.68;97777.41;5041624;28;20278;-71
2021/06/11 08:28:13;;;;;;;2.00;1.90;;;;;;;20.67;92.43;97798.34;5054842;28;20250;-71
2021/06/11 08:30:41;;;;;;;2.07;1.90;;;;;;;20.66;92.47;97799.13;5054638;28;20192;-71
2021/06/11 08:33:12;;;;;;;2.07;1.97;;;;;;;20.31;92.88;97729.72;5048733;28;20254;-71
2021/06/11 08:35:38;;;;;;;2.23;2.10;;;;;;;20.64;92.47;97790.56;5054868;28;20256;-71
2021/06/11 08:38:05;;;;;;;2.10;1.90;;;;;;;20.54;92.40;97775.69;5056213;28;20193;-71
2021/06/11 08:40:32;;;;;;;2.10;2.00;;;;;;;20.49;92.23;97766.97;5040755;28;20236;-70
2021/06/11 08:42:59;;;;;;;2.00;1.90;;;;;;;20.61;92.35;97785.34;5010132;28;20694;-71
2021/06/11 08:45:25;;;;;;;2.33;2.13;;;;;;;20.31;92.41;97722.91;5045463;28;20781;-71
2021/06/11 08:47:53;;;;;;;2.20;2.00;;;;;;;20.56;92.49;97768.97;5046858;28;20281;-71
2021/06/11 08:50:27;;;;;;;2.10;2.00;;;;;;;20.63;92.60;97790.50;5063430;28;20296;-71
2021/06/11 08:52:54;;;;;;;2.00;1.90;;;;;;;20.32;92.54;97732.31;5048842;28;20633;-70
2021/06/11 08:55:21;;;;;;;1.97;1.87;;;;;;;20.57;92.53;97782.63;5045757;28;20599;-71
2021/06/11 08:57:49;;;;;;;2.03;1.93;;;;;;;20.69;92.49;97803.50;5042226;28;20283;-70
2021/06/11 09:00:15;;;;;;;2.30;2.17;;;;;;;20.44;92.49;97757.44;5059988;28;20695;-71
2021/06/11 09:03:15;;;;;;;1.90;1.80;;;;;;;20.69;92.46;97795.84;5024754;28;20843;-70
2021/06/11 09:05:45;;;;;;;2.10;2.00;;;;;;;20.55;92.64;97767.25;5061448;28;20260;-77
2021/06/11 09:08:23;;;;;;;2.00;1.90;;;;;;;20.68;92.77;97784.75;5039366;28;20625;-70
2021/06/11 09:10:51;;;;;;;4.50;2.23;;;;;;;20.60;92.38;97773.38;5045077;28;20728;-71
2021/06/11 09:13:26;;;;;;;2.30;2.10;;;;;;;19.98;92.38;97664.63;5039104;28;20250;-71
2021/06/11 09:16:20;;;;;;;2.33;2.13;;;;;;;20.69;92.69;97785.63;5063400;28;20285;-69
2021/06/11 09:18:47;;;;;;;1.90;1.80;;;;;;;20.68;92.38;97782.19;5063464;28;20211;-70
2021/06/11 09:21:24;;;;;;;2.20;2.07;;;;;;;20.55;92.92;97759.59;5049128;28;20197;-71
2021/06/11 09:24:20;;;;;;;2.57;2.03;;;;;;;20.69;92.58;97785.63;5057085;28;20232;-71
2021/06/11 09:27:00;;;;;;;2.20;2.10;;;;;;;20.68;92.42;97782.19;5051469;28;20786;-71
2021/06/11 09:29:47;;;;;;;2.50;2.30;;;;;;;20.66;92.52;97781.25;5067110;28;20235;-71
2021/06/11 09:32:14;;;;;;;2.40;2.20;;;;;;;20.68;92.53;97789.84;5045159;28;20727;-71
2021/06/11 09:34:42;;;;;;;2.13;1.93;;;;;;;20.29;92.57;97729.66;5048095;28;20228;-71
2021/06/11 09:37:14;;;;;;;2.50;2.30;;;;;;;20.68;92.68;97794.97;5063359;28;20224;-71
2021/06/11 09:39:51;;;;;;;2.20;2.00;;;;;;;20.68;92.62;97787.28;5053500;28;20201;-71
2021/06/11 09:42:25;;;;;;;2.23;2.13;;;;;;;20.56;92.86;97766.41;5049697;28;20911;-71
2021/06/11 09:45:06;;;;;;;2.20;2.10;;;;;;;20.68;92.70;97787.28;5037914;28;20236;-71
2021/06/11 09:47:36;;;;;;;2.00;1.90;;;;;;;20.68;92.67;97787.28;5046461;28;20243;-71
2021/06/11 09:50:21;;;;;;;2.17;1.97;;;;;;;20.69;92.89;97795.84;5047118;28;21075;-71
2021/06/11 09:53:06;;;;;;;2.27;2.10;;;;;;;20.69;92.66;97793.28;5048506;28;20300;-71
2021/06/11 09:55:36;;;;;;;1.97;1.87;;;;;;;20.68;92.83;97789.84;5066545;28;20315;-71
2021/06/11 09:58:13;;;;;;;2.10;2.00;;;;;;;20.69;92.46;97796.69;5047469;28;20205;-70
2021/06/11 10:00:49;;;;;;;2.50;2.30;;;;;;;20.55;92.77;97767.25;5059174;28;20279;-71
2021/06/11 10:03:20;;;;;;;2.60;2.03;;;;;;;20.68;92.50;97783.88;5062149;28;20201;-72
2021/06/11 10:05:47;;;;;;;2.30;2.10;;;;;;;20.70;92.68;97782.25;5049024;28;20232;-71
2021/06/11 10:08:14;;;;;;;2.13;2.03;;;;;;;20.70;92.58;97783.13;5058768;28;20329;-70
2021/06/11 10:10:42;;;;;;;2.30;2.10;;;;;;;20.58;92.83;97757.16;5045846;28;20271;-71
2021/06/11 10:13:10;;;;;;;5.47;2.40;;;;;;;20.70;92.68;97772.91;5047757;28;20201;-70
2021/06/11 10:15:36;;;;;;;2.20;2.00;;;;;;;20.70;92.66;97775.47;5049908;28;20852;-70
2021/06/11 10:18:04;;;;;;;2.20;2.10;;;;;;;20.69;92.55;97776.25;5065781;28;20261;-71
2021/06/11 10:20:31;;;;;;;2.30;2.10;;;;;;;20.64;92.68;97765.03;5066034;28;20387;-71
2021/06/11 10:22:57;;;;;;;2.50;2.30;;;;;;;20.59;92.66;97752.88;5049734;28;20320;-70
2021/06/11 10:25:24;;;;;;;1.90;1.80;;;;;;;20.55;92.75;97748.50;5033384;28;20296;-71
2021/06/11 10:27:51;;;;;;;2.00;1.90;;;;;;;20.49;92.65;97735.50;5040697;28;20240;-71
2021/06/11 10:30:17;;;;;;;2.47;2.27;;;;;;;20.51;92.56;97739.84;5056830;28;20333;-70
2021/06/11 10:32:47;;;;;;;2.30;2.20;;;;;;;20.55;92.40;97740.81;5060687;28;20196;-71
2021/06/11 10:35:33;;;;;;;2.13;2.03;;;;;;;20.73;92.71;97770.47;5054770;28;20248;-70
2021/06/11 10:38:00;;;;;;;2.13;2.03;;;;;;;20.69;92.62;97766.03;5043336;28;20633;-71
2021/06/11 10:40:34;;;;;;;2.40;2.20;;;;;;;20.73;92.44;97767.03;5065372;28;20295;-70
2021/06/11 10:43:27;;;;;;;2.13;2.03;;;;;;;20.73;92.45;97761.94;5066019;28;20782;-70
2021/06/11 10:45:55;;;;;;;1.90;1.80;;;;;;;20.61;92.54;97738.50;5064894;28;20970;-71
2021/06/11 10:48:22;;;;;;;2.10;2.00;;;;;;;20.38;92.26;97695.94;5044919;28;20204;-71
2021/06/11 10:50:49;;;;;;;2.20;2.10;;;;;;;20.69;92.24;97750.72;5027242;28;20319;-71
2021/06/11 10:53:29;;;;;;;2.20;2.00;;;;;;;20.72;92.15;97758.50;5043967;28;20947;-72
2021/06/11 10:56:15;;;;;;;2.33;2.13;;;;;;;20.60;92.18;97736.78;5055641;28;20252;-71
2021/06/11 10:58:43;;;;;;;2.33;2.13;;;;;;;20.74;91.98;97761.09;5047589;28;20792;-71
2021/06/11 11:01:24;;;;;;;1.97;1.87;;;;;;;20.63;92.05;97739.44;5059111;28;20196;-71
2021/06/11 11:03:51;;;;;;;2.00;1.90;;;;;;;20.69;92.03;97747.31;5065108;28;20204;-71
2021/06/11 11:06:24;;;;;;;1.93;1.83;;;;;;;20.75;92.00;97757.75;5048756;28;20307;-71
2021/06/11 11:08:52;;;;;;;2.20;2.10;;;;;;;20.63;91.75;97731.78;5047046;28;20292;-71
2021/06/11 11:11:32;;;;;;;1.87;1.77;;;;;;;20.63;92.16;97732.63;5061211;28;20460;-71
2021/06/11 11:13:59;;;;;;;2.03;1.93;;;;;;;20.60;92.00;97724.00;5032645;28;20253;-71
2021/06/11 11:16:27;;;;;;;2.30;2.20;;;;;;;20.69;92.08;97739.66;5030481;28;20267;-70
2021/06/11 11:18:54;;;;;;;2.47;2.27;;;;;;;20.75;92.24;97744.97;5029255;28;20568;-71
2021/06/11 11:21:20;;;;;;;2.70;1.80;;;;;;;20.75;92.16;97750.09;5049461;28;20270;-71
2021/06/11 11:23:52;;;;;;;2.27;2.17;;;;;;;20.70;91.82;97736.28;5062896;28;20227;-71
2021/06/11 11:26:37;;;;;;;1.77;1.67;;;;;;;20.75;92.11;97742.44;5050068;28;20251;-71
2021/06/11 11:29:03;;;;;;;2.10;2.00;;;;;;;20.68;92.34;97726.00;5053765;28;20810;-72
2021/06/11 11:31:30;;;;;;;1.97;1.87;;;;;;;20.74;92.23;97736.44;5039997;28;20231;-70
2021/06/11 11:33:57;;;;;;;2.07;1.97;;;;;;;20.61;92.32;97708.75;5064924;28;20299;-71
2021/06/11 11:36:23;;;;;;;1.97;1.87;;;;;;;20.61;92.14;97708.75;5063393;28;20263;-69
2021/06/11 11:38:52;;;;;;;2.30;2.13;;;;;;;20.26;92.15;97647.00;5039787;28;20204;-71
2021/06/11 11:41:21;;;;;;;1.97;1.83;;;;;;;20.74;92.43;97728.78;5028229;28;20236;-71